Time;durP1;ratioP1;P1;durP2;ratioP2;P2;SDS_P1;SDS_P2;PMS_P1;PMS_P2;Temp;Humidity;BMP_temperature;BMP_pressure;BME280_temperature;BME280_humidity;BME280_pressure;Samples;Min_cycle;Max_cycle;Signal;HPM_P1;HPM_P2
2023/08/11 00:02:39;;;;;;;12.23;5.93;;;;;;;19.30;67.84;99989.53;4936485;28;20047;-67
2023/08/11 00:05:05;;;;;;;7.97;5.82;;;;;;;19.21;68.43;99985.91;4936994;28;20050;-64
2023/08/11 00:07:31;;;;;;;10.38;6.22;;;;;;;19.09;68.91;99975.50;4935792;28;20046;-64
2023/08/11 00:09:56;;;;;;;10.50;6.28;;;;;;;19.05;69.28;99980.38;4925210;28;20047;-65
2023/08/11 00:12:21;;;;;;;12.50;6.78;;;;;;;19.08;69.45;99984.59;4937364;28;20051;-65
2023/08/11 00:14:50;;;;;;;9.80;6.53;;;;;;;19.07;69.61;99988.34;4937071;28;20058;-64
2023/08/11 00:17:16;;;;;;;10.55;5.60;;;;;;;19.02;69.84;99986.09;4939148;28;20043;-66
2023/08/11 00:19:41;;;;;;;7.90;5.70;;;;;;;19.01;70.54;99995.19;4939355;28;20541;-66
2023/08/11 00:22:10;;;;;;;8.63;6.43;;;;;;;19.07;70.30;99988.34;4936326;28;20039;-66
2023/08/11 00:24:35;;;;;;;12.25;5.82;;;;;;;19.06;70.71;100009.13;4936633;28;20050;-66
2023/08/11 00:27:05;;;;;;;10.90;5.97;;;;;;;19.12;70.63;99986.84;4937700;28;20043;-66
2023/08/11 00:29:32;;;;;;;10.43;5.80;;;;;;;19.14;70.03;99990.25;4940888;28;20608;-64
2023/08/11 00:32:00;;;;;;;9.55;6.53;;;;;;;19.14;70.65;100000.22;4951101;28;20042;-65
2023/08/11 00:34:25;;;;;;;9.68;6.30;;;;;;;19.14;70.63;99987.56;4938987;28;20035;-64
2023/08/11 00:36:55;;;;;;;8.85;5.88;;;;;;;19.13;70.70;99983.16;4938958;28;20055;-65
2023/08/11 00:39:23;;;;;;;8.82;5.82;;;;;;;19.12;71.04;99980.59;4921229;28;20058;-65
2023/08/11 00:41:48;;;;;;;8.98;6.20;;;;;;;19.11;71.04;99990.56;4938159;28;20493;-74
2023/08/11 00:44:13;;;;;;;9.70;6.47;;;;;;;19.09;70.99;99976.34;4921025;28;20050;-71
2023/08/11 00:46:42;;;;;;;8.48;6.00;;;;;;;19.08;71.07;99973.78;4938039;28;20051;-69
2023/08/11 00:49:13;;;;;;;8.70;5.63;;;;;;;19.07;71.34;99977.53;4938579;28;20422;-68
2023/08/11 00:51:41;;;;;;;11.43;6.75;;;;;;;19.04;71.48;99977.84;4940274;28;20053;-67
2023/08/11 00:54:10;;;;;;;9.45;6.97;;;;;;;19.02;72.02;99937.47;4936103;28;20046;-67
2023/08/11 00:56:36;;;;;;;8.38;5.78;;;;;;;19.02;72.37;99980.69;4938571;28;20042;-66
2023/08/11 00:59:03;;;;;;;10.40;6.50;;;;;;;18.99;72.18;99970.19;4925515;28;20925;-67
2023/08/11 01:01:29;;;;;;;13.80;6.40;;;;;;;18.97;72.85;99972.19;4925855;28;20050;-66
2023/08/11 01:03:57;;;;;;;12.65;6.07;;;;;;;18.98;72.56;99960.38;4937072;28;20043;-66
2023/08/11 01:06:39;;;;;;;13.63;6.47;;;;;;;18.99;72.22;99966.63;4947558;28;20046;-66
2023/08/11 01:09:16;;;;;;;11.02;6.25;;;;;;;19.01;72.38;99970.88;4936916;28;20043;-65
2023/08/11 01:12:09;;;;;;;11.50;6.68;;;;;;;19.00;72.41;99982.69;4926868;28;20051;-67
2023/08/11 01:14:53;;;;;;;9.23;6.50;;;;;;;19.01;72.63;99997.06;4948619;28;20047;-65
2023/08/11 01:17:47;;;;;;;8.23;6.57;;;;;;;19.02;72.28;99980.69;4927267;28;20379;-66
2023/08/11 01:20:16;;;;;;;9.10;6.32;;;;;;;18.95;72.41;99984.19;4937715;28;20410;-66
2023/08/11 01:22:47;;;;;;;8.10;5.93;;;;;;;18.95;72.46;99989.59;4949344;28;20413;-66
2023/08/11 01:25:12;;;;;;;11.90;6.57;;;;;;;18.93;72.59;99978.94;4941433;28;20038;-66
2023/08/11 01:27:47;;;;;;;11.05;7.07;;;;;;;18.99;72.94;99972.03;4935737;28;20055;-68
2023/08/11 01:30:15;;;;;;;10.18;6.72;;;;;;;18.97;72.21;99977.59;4925553;28;20042;-66
2023/08/11 01:32:40;;;;;;;7.05;5.53;;;;;;;18.96;72.58;99981.28;4938239;28;20046;-66
2023/08/11 01:35:09;;;;;;;10.60;7.07;;;;;;;18.95;72.68;99985.03;4942579;28;20376;-65
2023/08/11 01:37:36;;;;;;;12.57;6.97;;;;;;;18.94;72.88;99972.53;4926250;28;20055;-67
2023/08/11 01:40:01;;;;;;;10.88;7.50;;;;;;;18.97;72.73;99953.28;4924503;29;20066;-69
2023/08/11 01:42:29;;;;;;;9.77;7.43;;;;;;;19.00;73.58;99949.41;4926266;28;20046;-71
2023/08/11 01:44:59;;;;;;;13.60;7.20;;;;;;;19.00;72.84;99960.22;4937284;28;20409;-71
2023/08/11 01:47:24;;;;;;;11.38;7.03;;;;;;;18.98;73.16;99968.47;4920763;28;20050;-70
2023/08/11 01:49:50;;;;;;;11.63;7.05;;;;;;;18.95;73.57;99962.56;4934690;28;20066;-68
2023/08/11 01:52:43;;;;;;;19.85;7.25;;;;;;;18.99;74.11;99942.31;4934898;28;20058;-68
2023/08/11 01:55:10;;;;;;;11.00;7.03;;;;;;;18.95;73.23;99941.81;4936461;28;20042;-66
2023/08/11 01:57:40;;;;;;;9.45;6.80;;;;;;;18.94;73.65;99950.91;4935460;28;20126;-69
2023/08/11 02:00:31;;;;;;;10.73;6.85;;;;;;;18.92;73.45;99952.06;4936786;28;20041;-67
2023/08/11 02:02:57;;;;;;;12.77;7.15;;;;;;;18.92;74.02;99965.56;4931295;28;20046;-67
2023/08/11 02:05:24;;;;;;;11.90;7.50;;;;;;;18.91;73.89;99953.91;4940858;28;20042;-69
2023/08/11 02:07:55;;;;;;;10.43;6.38;;;;;;;18.92;74.41;99969.13;4936113;28;20143;-67
2023/08/11 02:13:12;;;;;;;13.30;7.93;;;;;;;18.97;74.07;99939.75;4918863;28;20055;-69
2023/08/11 02:15:39;;;;;;;14.48;7.85;;;;;;;18.99;74.52;99981.00;4924990;28;20050;-70
2023/08/11 02:18:06;;;;;;;10.00;7.20;;;;;;;19.04;74.63;99942.72;4909743;28;20059;-69
2023/08/11 02:20:32;;;;;;;13.38;7.30;;;;;;;19.08;74.35;99954.88;4932950;28;20403;-68
2023/08/11 02:22:58;;;;;;;11.07;7.57;;;;;;;19.11;74.35;99973.50;4927812;28;20410;-67
2023/08/11 02:25:25;;;;;;;9.13;6.90;;;;;;;19.16;74.45;99939.59;4909870;28;20054;-68
2023/08/11 02:27:55;;;;;;;12.45;7.85;;;;;;;19.25;74.12;99958.56;4929267;28;20552;-68
2023/08/11 02:30:24;;;;;;;11.32;7.53;;;;;;;19.30;73.98;99940.03;4901299;28;20452;-69
2023/08/11 02:32:51;;;;;;;9.55;6.90;;;;;;;19.31;74.35;99930.91;4935137;28;20796;-69
2023/08/11 02:35:17;;;;;;;10.43;7.90;;;;;;;19.34;74.13;99936.84;4937352;28;20046;-70
2023/08/11 02:37:43;;;;;;;12.57;7.57;;;;;;;19.41;74.46;99931.66;4935735;28;20043;-76
2023/08/11 02:40:35;;;;;;;11.25;8.02;;;;;;;19.46;73.76;99929.31;4934909;28;20042;-69
2023/08/11 02:43:02;;;;;;;11.30;7.40;;;;;;;19.50;73.77;99945.13;4933012;28;20093;-68
2023/08/11 02:45:28;;;;;;;9.50;7.22;;;;;;;19.53;73.71;99925.84;4935187;28;20047;-70
2023/08/11 02:47:54;;;;;;;13.95;7.35;;;;;;;19.58;73.42;99934.34;4932723;28;20058;-69
2023/08/11 02:50:40;;;;;;;12.07;8.07;;;;;;;19.67;73.07;99932.53;4934880;28;20042;-67
2023/08/11 02:53:09;;;;;;;12.48;7.55;;;;;;;19.73;73.39;99931.03;4934137;28;20046;-68
2023/08/11 02:56:05;;;;;;;14.10;7.68;;;;;;;19.79;72.68;99924.97;4936538;28;20050;-68
2023/08/11 02:58:37;;;;;;;14.43;8.20;;;;;;;19.84;72.72;99918.09;4935529;28;20058;-69
2023/08/11 03:01:03;;;;;;;10.48;7.70;;;;;;;19.87;72.65;99906.91;4935620;28;20053;-69
2023/08/11 03:03:29;;;;;;;10.55;7.65;;;;;;;19.86;73.31;99893.56;4936376;28;20548;-68
2023/08/11 03:05:55;;;;;;;11.07;7.57;;;;;;;19.87;73.04;99917.72;4950382;28;20039;-68
2023/08/11 03:08:25;;;;;;;12.98;7.45;;;;;;;19.89;73.22;99910.31;4936489;28;20096;-68
2023/08/11 03:13:44;;;;;;;14.30;8.55;;;;;;;19.91;73.19;99897.47;4935398;28;20054;-69
2023/08/11 03:16:15;;;;;;;9.60;7.72;;;;;;;20.00;73.48;99932.69;4919231;28;20062;-69
2023/08/11 03:18:45;;;;;;;;;;;;;;;20.28;72.54;99916.03;4936923;28;20413;-71
2023/08/11 03:21:36;;;;;;;14.18;8.30;;;;;;;20.24;72.27;99914.66;4941972;28;19917;-70
2023/08/11 03:24:11;;;;;;;17.02;8.68;;;;;;;20.29;72.21;99923.16;4935414;28;20042;-69
2023/08/11 03:26:40;;;;;;;14.13;8.45;;;;;;;20.39;72.45;99920.34;4935325;28;20395;-68
2023/08/11 03:29:06;;;;;;;11.95;8.60;;;;;;;20.49;72.36;99907.50;4935170;28;20050;-69
2023/08/11 03:31:35;;;;;;;14.15;8.43;;;;;;;20.58;72.12;99916.47;4928112;28;20065;-69
2023/08/11 03:34:02;;;;;;;14.18;8.35;;;;;;;20.66;71.97;99905.63;4935206;28;20051;-69
2023/08/11 03:36:30;;;;;;;12.13;9.02;;;;;;;20.69;71.91;99929.69;4951214;28;20077;-69
2023/08/11 03:38:56;;;;;;;11.73;8.63;;;;;;;20.77;71.69;99920.75;4934611;28;20061;-69
2023/08/11 03:41:23;;;;;;;12.75;8.60;;;;;;;20.80;72.00;99912.25;4918983;28;20414;-70
2023/08/11 03:43:50;;;;;;;13.25;8.38;;;;;;;20.84;71.70;99903.63;4933610;28;20043;-69
2023/08/11 03:46:22;;;;;;;10.50;8.90;;;;;;;20.81;71.81;99922.94;4929350;28;20047;-68
2023/08/11 03:48:51;;;;;;;15.77;8.57;;;;;;;20.80;72.17;99921.22;4935192;28;20051;-68
2023/08/11 03:51:43;;;;;;;13.85;8.23;;;;;;;20.99;71.58;99890.25;4936161;28;20042;-69
2023/08/11 03:57:06;;;;;;;12.52;9.27;;;;;;;21.29;71.26;99891.44;4935045;28;20058;-69
2023/08/11 03:59:34;;;;;;;10.80;7.97;;;;;;;21.38;70.73;99883.09;4923860;28;20046;-69
2023/08/11 04:02:00;;;;;;;15.38;8.02;;;;;;;21.45;70.32;99874.25;4934746;28;20521;-69
2023/08/11 04:04:28;;;;;;;12.10;7.95;;;;;;;21.49;70.67;99878.31;4935072;28;20043;-70
2023/08/11 04:06:54;;;;;;;16.25;7.68;;;;;;;21.54;70.39;99879.50;4934654;28;20057;-70
2023/08/11 04:09:22;;;;;;;14.73;8.30;;;;;;;21.65;70.27;99889.13;4934456;28;20042;-71
2023/08/11 04:11:48;;;;;;;12.57;8.02;;;;;;;21.74;69.92;99905.22;4935814;28;20058;-70
2023/08/11 04:14:14;;;;;;;16.45;8.40;;;;;;;21.90;69.89;99877.16;4935935;28;20053;-71
2023/08/11 04:16:40;;;;;;;13.18;7.95;;;;;;;22.01;69.50;99874.06;4937885;28;20062;-70
2023/08/11 04:19:09;;;;;;;14.25;7.18;;;;;;;22.08;69.03;99885.09;4937958;28;20073;-70
2023/08/11 04:21:36;;;;;;;10.18;7.53;;;;;;;22.02;68.90;99872.19;4939055;28;20395;-70
2023/08/11 04:24:02;;;;;;;10.07;6.78;;;;;;;22.00;68.90;99864.25;4937992;28;20043;-71
2023/08/11 04:26:28;;;;;;;9.27;7.00;;;;;;;22.06;68.70;99866.25;4922328;28;20042;-69
2023/08/11 04:28:56;;;;;;;10.10;6.22;;;;;;;22.21;68.09;99862.78;4937406;28;20065;-70
2023/08/11 04:31:22;;;;;;;9.38;6.43;;;;;;;22.20;67.79;99861.94;4937617;28;20047;-69
2023/08/11 04:34:16;;;;;;;8.77;6.55;;;;;;;22.28;67.63;99874.63;4953960;28;20051;-69
2023/08/11 04:36:45;;;;;;;10.70;6.57;;;;;;;22.24;67.20;99857.81;4922089;28;20057;-70
2023/08/11 04:39:11;;;;;;;9.82;5.70;;;;;;;22.15;67.13;99855.34;4939695;28;20046;-71
2023/08/11 04:41:39;;;;;;;9.82;6.18;;;;;;;21.98;67.31;99841.88;4922323;28;20046;-71
2023/08/11 04:44:04;;;;;;;6.30;4.85;;;;;;;22.08;67.16;99845.19;4937801;28;20058;-71
2023/08/11 04:46:31;;;;;;;7.32;5.55;;;;;;;21.95;67.40;99841.34;4921166;28;20046;-71
2023/08/11 04:48:57;;;;;;;13.30;6.43;;;;;;;22.15;66.96;99836.31;4921097;28;20054;-70
2023/08/11 04:51:26;;;;;;;11.57;6.00;;;;;;;22.50;66.56;99830.31;4937763;28;20051;-70
2023/08/11 04:53:52;;;;;;;10.00;6.07;;;;;;;23.03;65.52;99839.38;4937706;28;20057;-70
2023/08/11 04:56:23;;;;;;;7.57;5.88;;;;;;;23.56;64.32;99832.91;4937649;28;20047;-70
2023/08/11 04:59:15;;;;;;;13.10;5.90;;;;;;;24.16;62.34;99869.88;4937916;28;20057;-68
2023/08/11 05:01:42;;;;;;;7.25;5.03;;;;;;;24.03;60.96;99873.31;4938408;28;20034;-68
2023/08/11 05:04:09;;;;;;;8.48;5.45;;;;;;;23.59;61.29;99864.34;4938634;28;20062;-69
2023/08/11 05:06:37;;;;;;;6.70;5.10;;;;;;;23.14;62.92;99861.53;4938635;28;20073;-69
2023/08/11 05:09:03;;;;;;;10.88;5.07;;;;;;;22.85;62.97;99872.34;4938623;28;20082;-68
2023/08/11 05:11:29;;;;;;;7.85;5.50;;;;;;;22.52;63.96;99876.31;4938304;28;20046;-69
2023/08/11 05:13:55;;;;;;;10.18;5.78;;;;;;;22.24;64.77;99892.28;4938400;28;20062;-70
2023/08/11 05:16:22;;;;;;;9.82;5.80;;;;;;;22.02;65.88;99896.63;4938513;28;20049;-69
2023/08/11 05:18:49;;;;;;;19.02;6.95;;;;;;;21.87;66.83;99917.38;4937049;28;20058;-70
2023/08/11 05:21:39;;;;;;;25.60;7.43;;;;;;;21.57;68.43;99908.97;4938436;28;20046;-70
2023/08/11 05:24:06;;;;;;;11.73;6.72;;;;;;;20.87;70.91;99949.38;4904923;28;20054;-71
2023/08/11 05:26:33;;;;;;;14.23;7.28;;;;;;;20.28;74.00;99937.69;4937809;28;20058;-69
2023/08/11 05:28:59;;;;;;;9.63;7.40;;;;;;;20.04;76.06;99966.53;4937785;28;20057;-68
2023/08/11 05:31:24;;;;;;;10.57;7.55;;;;;;;19.71;77.01;99933.06;4937616;28;20046;-68
2023/08/11 05:33:52;;;;;;;11.93;7.13;;;;;;;19.60;79.02;99922.50;4936919;28;20410;-71
2023/08/11 05:36:20;;;;;;;14.13;8.60;;;;;;;19.39;80.52;99903.94;4938032;28;20073;-73
2023/08/11 05:38:45;;;;;;;10.60;7.60;;;;;;;19.35;81.87;99922.31;4938025;28;20046;-72
2023/08/11 05:41:10;;;;;;;14.60;7.18;;;;;;;19.40;81.83;99922.72;4936743;28;20039;-71
2023/08/11 05:43:36;;;;;;;13.43;8.60;;;;;;;19.48;82.46;99917.38;4938178;28;20038;-72
2023/08/11 05:46:02;;;;;;;9.57;7.72;;;;;;;19.48;83.07;99916.50;4937842;28;20050;-72
2023/08/11 05:48:28;;;;;;;11.32;7.82;;;;;;;19.55;83.91;99913.00;4937773;28;20054;-69
2023/08/11 05:50:54;;;;;;;13.60;8.35;;;;;;;19.50;84.41;99923.47;4936461;28;20427;-69
2023/08/11 05:53:20;;;;;;;15.25;8.80;;;;;;;19.59;84.38;99910.84;4937916;28;20042;-70
2023/08/11 05:55:50;;;;;;;11.65;8.88;;;;;;;19.65;85.05;99912.91;4937461;28;20050;-69
2023/08/11 05:58:23;;;;;;;12.48;8.18;;;;;;;19.81;84.24;99913.00;4937580;28;20065;-69
2023/08/11 06:00:48;;;;;;;9.60;8.32;;;;;;;19.84;84.05;99907.25;4937396;28;20038;-69
2023/08/11 06:03:15;;;;;;;12.30;9.15;;;;;;;19.97;84.94;99912.22;4936349;28;20047;-69
2023/08/11 06:05:40;;;;;;;9.98;8.05;;;;;;;20.13;84.26;99909.56;4937580;28;20386;-68
2023/08/11 06:08:07;;;;;;;11.82;8.32;;;;;;;20.28;82.98;99904.38;4919927;28;20050;-68
2023/08/11 06:10:34;;;;;;;9.68;7.70;;;;;;;20.24;82.68;99916.53;4937618;28;20062;-68
2023/08/11 06:13:00;;;;;;;12.00;9.30;;;;;;;20.28;82.72;99904.38;4936934;28;20761;-69
2023/08/11 06:15:26;;;;;;;13.27;9.50;;;;;;;20.36;82.74;99911.69;4937078;28;20056;-69
2023/08/11 06:17:55;;;;;;;13.15;9.35;;;;;;;20.44;81.98;99899.00;4937600;28;20140;-69
2023/08/11 06:20:22;;;;;;;12.20;8.35;;;;;;;20.46;81.77;99915.94;4936158;28;20065;-70
2023/08/11 06:26:03;;;;;;;14.10;8.77;;;;;;;20.57;80.70;99928.31;4935281;28;20054;-70
2023/08/11 06:28:30;;;;;;;13.68;9.35;;;;;;;20.46;80.85;99943.03;4934476;28;20047;-69
2023/08/11 06:37:04;;;;;;;14.85;8.90;;;;;;;20.35;82.11;99937.91;4935422;28;20066;-71
2023/08/11 06:40:20;;;;;;;15.52;9.93;;;;;;;20.40;82.59;99929.31;4935337;28;20050;-70
2023/08/11 06:42:46;;;;;;;19.65;11.10;;;;;;;20.34;82.11;99936.19;4916232;29;20054;-70
2023/08/11 06:45:16;;;;;;;18.40;10.68;;;;;;;20.36;82.12;99912.53;4917769;29;20046;-70
2023/08/11 06:47:43;;;;;;;16.13;9.90;;;;;;;20.35;81.78;99905.41;4917711;29;20051;-69
2023/08/11 06:53:24;;;;;;;16.10;11.10;;;;;;;20.40;81.93;99899.50;4917763;29;20051;-69
2023/08/11 06:55:52;;;;;;;18.77;11.38;;;;;;;20.46;81.46;99893.41;4917292;28;20050;-68
2023/08/11 06:58:43;;;;;;;14.88;11.48;;;;;;;20.59;80.79;99918.16;4937851;28;20058;-68
2023/08/11 07:01:09;;;;;;;16.33;11.02;;;;;;;20.61;80.59;99892.59;4936058;28;20042;-70
2023/08/11 07:03:38;;;;;;;17.02;11.63;;;;;;;20.84;80.55;99890.09;4944794;28;20046;-72
2023/08/11 07:06:06;;;;;;;16.83;11.00;;;;;;;21.42;80.04;99896.31;4937906;28;20440;-71
2023/08/11 07:08:35;;;;;;;19.05;10.93;;;;;;;22.12;77.85;99901.88;4935938;28;20050;-71
2023/08/11 07:11:02;;;;;;;17.55;11.77;;;;;;;22.40;75.44;99884.03;4937379;28;20054;-70
2023/08/11 07:13:28;;;;;;;20.65;12.20;;;;;;;22.54;74.59;99866.13;4936970;28;20047;-70
2023/08/11 07:15:57;;;;;;;16.02;10.95;;;;;;;22.70;73.48;99875.00;4937404;28;20046;-70
2023/08/11 07:18:27;;;;;;;17.33;10.13;;;;;;;22.79;72.27;99875.81;4936860;28;20050;-70
2023/08/11 07:20:52;;;;;;;14.00;10.07;;;;;;;23.00;71.34;99856.09;4919347;28;20046;-70
2023/08/11 07:23:17;;;;;;;13.55;9.95;;;;;;;23.38;70.32;99857.72;4936677;28;20042;-70
2023/08/11 07:25:44;;;;;;;14.23;9.60;;;;;;;23.59;68.87;99880.69;4935233;28;20047;-68
2023/08/11 07:28:11;;;;;;;7.97;6.28;;;;;;;23.74;67.14;99859.72;4936100;28;20058;-69
2023/08/11 07:30:37;;;;;;;12.02;8.70;;;;;;;23.55;66.61;99847.56;4936157;28;20042;-70
2023/08/11 07:33:06;;;;;;;11.25;8.65;;;;;;;23.53;65.23;99845.00;4936380;28;20035;-69
2023/08/11 07:35:34;;;;;;;14.32;8.98;;;;;;;24.41;64.76;99775.03;4936271;28;20050;-68
2023/08/11 07:38:01;;;;;;;9.55;8.48;;;;;;;25.39;61.72;99837.75;4936441;28;20082;-70
2023/08/11 07:40:29;;;;;;;11.90;8.57;;;;;;;26.41;59.39;99818.69;4927479;28;20122;-69
2023/08/11 07:42:56;;;;;;;12.75;8.38;;;;;;;27.91;55.75;99835.19;4936354;28;20050;-71
2023/08/11 07:45:21;;;;;;;12.88;8.68;;;;;;;28.33;52.86;99828.25;4936396;28;20058;-71
2023/08/11 07:47:46;;;;;;;14.02;8.40;;;;;;;28.01;52.05;99829.25;4936230;28;20405;-70
2023/08/11 07:50:14;;;;;;;11.30;8.70;;;;;;;28.12;52.54;99828.56;4937562;28;20042;-70
2023/08/11 07:52:42;;;;;;;12.05;8.65;;;;;;;28.85;50.37;99829.00;4950425;28;20076;-70
2023/08/11 07:55:07;;;;;;;9.43;7.70;;;;;;;29.34;49.10;99799.81;4939966;28;20043;-72
2023/08/11 07:57:32;;;;;;;13.27;9.45;;;;;;;29.83;47.35;99807.09;4938858;28;20047;-72
2023/08/11 08:00:26;;;;;;;9.38;7.68;;;;;;;30.85;46.32;99811.56;4940094;28;20038;-71
2023/08/11 08:03:20;;;;;;;10.77;8.13;;;;;;;31.72;43.80;99798.75;4939864;28;20039;-70
2023/08/11 08:05:45;;;;;;;13.18;8.70;;;;;;;31.23;43.78;99808.41;4922168;28;20061;-70
2023/08/11 08:08:14;;;;;;;14.50;8.45;;;;;;;29.86;44.86;99806.63;4939760;28;20046;-71
2023/08/11 08:10:42;;;;;;;15.73;9.18;;;;;;;28.31;48.36;99808.47;4939743;28;20046;-71
2023/08/11 08:13:08;;;;;;;16.08;9.82;;;;;;;27.22;50.56;99793.88;4939710;28;20050;-70
2023/08/11 08:15:38;;;;;;;11.70;8.65;;;;;;;26.28;53.44;99792.16;4939642;28;20043;-70
2023/08/11 08:18:06;;;;;;;13.77;9.52;;;;;;;25.83;55.04;99795.56;4920436;29;20109;-71
2023/08/11 08:20:31;;;;;;;12.50;9.43;;;;;;;26.05;55.72;99788.94;4903073;29;20537;-70
2023/08/11 08:23:00;;;;;;;14.02;8.70;;;;;;;26.98;54.20;99796.22;4920466;29;20039;-73
2023/08/11 08:25:28;;;;;;;11.15;8.23;;;;;;;27.27;52.98;99794.91;4920337;29;20418;-71
2023/08/11 08:27:56;;;;;;;15.27;8.48;;;;;;;27.16;53.26;99792.84;4919940;29;20620;-72
2023/08/11 08:30:22;;;;;;;12.50;7.82;;;;;;;26.98;53.67;99779.78;4920384;29;20039;-72
2023/08/11 08:32:48;;;;;;;11.75;8.00;;;;;;;26.91;53.88;99776.19;4920099;29;20418;-71
2023/08/11 08:35:20;;;;;;;11.90;8.00;;;;;;;27.00;54.21;99788.63;4920016;29;20051;-70
2023/08/11 08:37:51;;;;;;;12.25;8.85;;;;;;;27.19;53.57;99797.88;4936185;28;20046;-72
2023/08/11 08:41:08;;;;;;;13.18;8.38;;;;;;;27.66;52.63;99804.94;4939306;28;20062;-70
2023/08/11 08:44:03;;;;;;;17.75;8.55;;;;;;;28.06;51.52;99810.25;4939006;28;20053;-70
2023/08/11 08:46:32;;;;;;;16.92;8.38;;;;;;;28.26;50.00;99811.00;4937857;28;20047;-71
2023/08/11 08:49:19;;;;;;;13.13;8.05;;;;;;;28.22;50.05;99820.72;4938993;28;20042;-71
2023/08/11 08:51:45;;;;;;;13.93;7.82;;;;;;;27.59;50.26;99798.66;4938761;28;20413;-71
2023/08/11 08:54:12;;;;;;;10.68;7.78;;;;;;;27.28;51.26;99814.91;4938837;28;20050;-71
2023/08/11 08:59:30;;;;;;;11.98;8.50;;;;;;;26.00;54.08;99796.88;4938807;28;20058;-70
2023/08/11 09:01:58;;;;;;;9.85;8.23;;;;;;;25.43;56.07;99792.63;4938441;28;20039;-71
2023/08/11 09:04:28;;;;;;;8.52;7.63;;;;;;;25.27;56.87;99828.44;4938867;28;20417;-70
2023/08/11 09:06:54;;;;;;;10.25;6.75;;;;;;;24.93;57.49;99808.25;4937482;28;20046;-72
2023/08/11 09:09:48;;;;;;;9.95;6.97;;;;;;;24.83;58.70;99804.16;4937636;28;20512;-70
2023/08/11 09:12:18;;;;;;;14.18;8.95;;;;;;;24.22;59.72;99801.06;4938234;28;20080;-68
2023/08/11 09:15:34;;;;;;;11.13;8.38;;;;;;;24.08;60.86;99824.56;4938575;28;20417;-68
2023/08/11 09:18:04;;;;;;;14.48;8.95;;;;;;;23.99;61.74;99849.38;4938423;28;20043;-71
2023/08/11 09:20:30;;;;;;;11.02;8.60;;;;;;;23.88;62.43;99839.81;4938304;28;20058;-72
2023/08/11 09:23:21;;;;;;;13.82;8.23;;;;;;;24.02;62.52;99827.22;4938370;28;20038;-71
2023/08/11 09:25:49;;;;;;;15.68;7.88;;;;;;;23.82;62.52;99821.50;4938405;28;20043;-70
2023/08/11 09:28:15;;;;;;;9.77;7.50;;;;;;;23.86;61.88;99817.38;4923332;28;20047;-68
2023/08/11 09:30:43;;;;;;;9.70;7.13;;;;;;;23.76;62.15;99822.28;4919070;29;20064;-71
2023/08/11 09:33:11;;;;;;;11.48;7.85;;;;;;;23.84;62.65;99819.44;4919054;29;20059;-70
2023/08/11 09:35:39;;;;;;;13.30;8.60;;;;;;;23.81;62.61;99826.13;4934155;28;20055;-71
2023/08/11 09:38:30;;;;;;;15.45;8.50;;;;;;;23.80;63.31;99813.56;4917905;29;20051;-72
2023/08/11 09:41:04;;;;;;;13.38;8.57;;;;;;;23.78;63.24;99842.00;4916978;28;20073;-74
2023/08/11 09:43:33;;;;;;;14.85;8.70;;;;;;;23.86;63.26;99826.38;4937395;28;20050;-72
2023/08/11 09:46:04;;;;;;;12.20;8.98;;;;;;;23.84;62.98;99824.88;4938075;28;20058;-73
2023/08/11 09:48:29;;;;;;;14.93;8.73;;;;;;;23.71;63.25;99809.22;4938013;28;20401;-73
2023/08/11 09:50:57;;;;;;;9.23;8.30;;;;;;;23.67;63.86;99826.16;4937662;28;20050;-72
2023/08/11 09:53:23;;;;;;;11.85;9.45;;;;;;;23.60;64.28;99817.88;4937853;28;20050;-71
2023/08/11 09:55:51;;;;;;;14.32;8.88;;;;;;;23.53;64.64;99820.53;4920247;28;20042;-71
2023/08/11 09:58:20;;;;;;;17.70;9.25;;;;;;;23.39;64.79;99821.31;4937990;28;20047;-71
2023/08/11 10:00:48;;;;;;;14.80;9.77;;;;;;;23.33;65.62;99823.97;4937324;28;20042;-71
2023/08/11 10:03:22;;;;;;;10.70;8.98;;;;;;;23.34;66.10;99822.94;4936567;28;20043;-71
2023/08/11 10:06:19;;;;;;;14.27;9.82;;;;;;;23.55;65.89;99825.78;4919768;28;20058;-69
2023/08/11 10:08:50;;;;;;;14.02;9.85;;;;;;;23.37;65.90;99838.88;4937361;28;20047;-71
2023/08/11 10:12:06;;;;;;;13.20;9.77;;;;;;;23.54;66.53;99834.97;4937373;28;20406;-71
2023/08/11 10:14:58;;;;;;;11.20;9.20;;;;;;;23.70;66.02;99823.06;4937216;28;20042;-70
2023/08/11 10:17:25;;;;;;;11.88;8.73;;;;;;;23.50;65.67;99829.06;4918382;29;20042;-71
2023/08/11 10:19:51;;;;;;;10.82;8.13;;;;;;;23.43;65.84;99843.56;4918368;29;20461;-71
2023/08/11 10:22:21;;;;;;;12.52;9.93;;;;;;;23.38;66.30;99832.38;4921015;28;20030;-70
2023/08/11 10:24:47;;;;;;;12.25;8.75;;;;;;;23.32;66.49;99809.50;4935934;28;20055;-71
2023/08/11 10:27:16;;;;;;;19.95;9.75;;;;;;;23.39;66.87;99837.66;4937284;28;20136;-72
2023/08/11 10:30:10;;;;;;;11.50;9.70;;;;;;;23.38;66.63;99807.91;4937187;28;20047;-72
2023/08/11 10:32:40;;;;;;;11.98;9.43;;;;;;;23.30;66.86;99824.34;4937038;28;20556;-70
2023/08/11 10:35:24;;;;;;;13.40;10.68;;;;;;;23.27;67.83;99816.53;4936952;28;20039;-70
2023/08/11 10:40:49;;;;;;;;;;;;;;;23.22;67.47;99808.09;4937516;28;20046;-70
2023/08/11 10:43:46;;;;;;;12.85;10.23;;;;;;;23.15;68.33;99808.00;4935453;28;20292;-71
2023/08/11 10:46:28;;;;;;;15.00;10.68;;;;;;;23.08;68.23;99801.63;4945702;28;20046;-70
2023/08/11 10:49:21;;;;;;;13.88;9.68;;;;;;;23.18;68.77;99796.75;4954444;28;20050;-72
2023/08/11 10:52:12;;;;;;;13.18;10.23;;;;;;;23.20;68.45;99778.38;4956193;28;20046;-72
2023/08/11 10:54:50;;;;;;;14.70;9.57;;;;;;;23.28;68.99;99774.69;4956170;28;20042;-70
2023/08/11 10:57:15;;;;;;;12.00;9.80;;;;;;;23.43;68.06;99784.56;4955986;28;20397;-70
2023/08/11 10:59:44;;;;;;;14.07;10.02;;;;;;;23.48;67.68;99792.97;4948747;28;20042;-69
2023/08/11 11:02:12;;;;;;;11.38;9.38;;;;;;;23.45;67.59;99793.38;4935626;28;20038;-72
2023/08/11 11:05:02;;;;;;;12.25;10.18;;;;;;;23.38;67.70;99797.88;4936876;28;20057;-72
2023/08/11 11:07:38;;;;;;;15.98;9.68;;;;;;;23.22;68.12;99813.53;4936717;28;20406;-71
2023/08/11 11:10:05;;;;;;;;;;;;;;;23.28;67.90;99807.34;4937013;28;20054;-72
2023/08/11 11:12:56;;;;;;;22.52;9.93;;;;;;;23.26;68.73;99793.94;4934540;28;19929;-70
2023/08/11 11:15:50;;;;;;;12.98;9.00;;;;;;;23.15;68.52;99797.13;4929006;28;20054;-63
2023/08/11 11:18:47;;;;;;;11.93;9.48;;;;;;;23.16;68.80;99804.25;4935958;28;20074;-63
2023/08/11 11:24:33;;;;;;;10.38;9.13;;;;;;;23.09;68.67;99817.75;4935974;28;20421;-64
2023/08/11 11:26:59;;;;;;;12.32;10.18;;;;;;;23.08;68.87;99809.78;4940177;28;20061;-66
2023/08/11 11:29:28;;;;;;;15.27;8.77;;;;;;;23.09;68.76;99812.31;4939736;28;20046;-64
2023/08/11 11:31:55;;;;;;;12.88;9.45;;;;;;;23.16;68.59;99810.53;4940030;28;20053;-63
2023/08/11 11:34:29;;;;;;;12.07;9.55;;;;;;;23.20;68.28;99794.69;4938736;28;20045;-63
2023/08/11 11:36:54;;;;;;;14.98;10.65;;;;;;;23.29;68.48;99799.00;4937945;28;20065;-63
2023/08/11 11:39:26;;;;;;;15.13;9.55;;;;;;;23.40;68.45;99790.38;4924018;28;20051;-66
2023/08/11 11:42:18;;;;;;;12.10;9.40;;;;;;;23.54;67.72;99791.44;4928588;28;20038;-62
2023/08/11 11:44:43;;;;;;;10.88;8.63;;;;;;;23.60;67.65;99800.69;4939898;28;20050;-63
2023/08/11 11:47:11;;;;;;;20.00;9.02;;;;;;;23.75;66.61;99809.69;4939469;28;20046;-65
2023/08/11 11:49:36;;;;;;;14.70;9.93;;;;;;;23.72;66.53;99778.25;4937064;28;20046;-65
2023/08/11 11:52:03;;;;;;;13.60;9.82;;;;;;;23.61;66.67;99776.00;4937802;28;20097;-62
2023/08/11 11:54:30;;;;;;;12.02;9.45;;;;;;;23.69;66.94;99778.66;4936774;28;20049;-63
2023/08/11 11:56:57;;;;;;;13.60;10.25;;;;;;;23.66;66.81;99783.63;4918661;28;20062;-64
2023/08/11 11:59:54;;;;;;;16.52;11.02;;;;;;;23.84;65.89;99775.88;4937837;28;20042;-63
2023/08/11 12:02:22;;;;;;;16.70;9.45;;;;;;;23.85;65.89;99767.53;4939695;28;20042;-64
2023/08/11 12:04:51;;;;;;;12.82;9.32;;;;;;;23.98;66.03;99755.09;4934077;28;20055;-63
2023/08/11 12:07:34;;;;;;;15.88;8.68;;;;;;;24.16;65.95;99759.03;4939165;28;20069;-64
2023/08/11 12:10:04;;;;;;;19.38;10.77;;;;;;;24.12;64.98;99767.81;4939549;28;20042;-72
2023/08/11 12:12:30;;;;;;;15.45;12.15;;;;;;;24.15;65.17;99772.88;4939287;28;20042;-68
2023/08/11 12:15:05;;;;;;;15.30;10.65;;;;;;;24.16;65.55;99748.16;4938221;28;20050;-69
2023/08/11 12:17:35;;;;;;;13.40;10.60;;;;;;;24.31;64.55;99750.00;4939635;28;20039;-65